createdAt,value
2018-12-22T00:02:13.679Z,10.30
2018-12-22T00:04:41.990Z,10.30
2018-12-22T00:07:09.472Z,10.30
2018-12-22T00:09:36.921Z,10.30
2018-12-22T00:12:04.398Z,10.30
2018-12-22T00:14:31.829Z,10.30
2018-12-22T00:16:59.301Z,10.30
2018-12-22T00:19:26.865Z,10.30
2018-12-22T00:21:54.378Z,10.30
2018-12-22T00:24:21.881Z,10.20
2018-12-22T00:26:49.408Z,10.20
2018-12-22T00:29:16.846Z,10.30
2018-12-22T00:31:44.312Z,10.30
2018-12-22T00:34:11.756Z,10.30
2018-12-22T00:36:39.237Z,10.20
2018-12-22T00:39:06.700Z,10.30
2018-12-22T00:41:34.290Z,10.30
2018-12-22T00:44:01.731Z,10.30
2018-12-22T00:46:29.199Z,10.30
2018-12-22T00:48:56.687Z,10.30
2018-12-22T00:51:24.142Z,10.30
2018-12-22T00:53:51.629Z,10.30
2018-12-22T00:56:19.102Z,10.20
2018-12-22T00:58:46.573Z,10.30
2018-12-22T01:01:14.235Z,10.30
2018-12-22T01:03:41.901Z,10.30
2018-12-22T01:06:09.436Z,10.30
2018-12-22T01:08:37.218Z,10.30
2018-12-22T01:11:04.661Z,10.30
2018-12-22T01:13:32.112Z,10.30
2018-12-22T01:15:59.616Z,10.30
2018-12-22T01:18:27.046Z,10.30
2018-12-22T01:20:54.531Z,10.30
2018-12-22T01:23:21.957Z,10.40
2018-12-22T01:25:49.529Z,10.30
2018-12-22T01:28:16.972Z,10.40
2018-12-22T01:30:44.415Z,10.40
2018-12-22T01:33:11.885Z,10.50
2018-12-22T01:35:39.321Z,10.50
2018-12-22T01:38:06.784Z,10.50
2018-12-22T01:40:34.228Z,10.50
2018-12-22T01:43:01.716Z,10.50
2018-12-22T01:45:29.153Z,10.50
2018-12-22T01:47:56.636Z,10.50
2018-12-22T01:50:24.146Z,10.50
2018-12-22T01:52:51.606Z,10.50
2018-12-22T01:55:19.047Z,10.50
2018-12-22T01:57:46.520Z,10.50
2018-12-22T02:00:13.960Z,10.40
2018-12-22T02:02:41.438Z,10.40
2018-12-22T02:05:08.879Z,10.40
2018-12-22T02:07:36.360Z,10.40
2018-12-22T02:10:05.126Z,10.30
2018-12-22T02:12:32.603Z,10.30
2018-12-22T02:15:00.041Z,10.30
2018-12-22T02:17:27.505Z,10.30
2018-12-22T02:19:54.954Z,10.40
2018-12-22T02:22:22.421Z,10.30
2018-12-22T02:24:49.912Z,10.30
2018-12-22T02:27:17.465Z,10.30
2018-12-22T02:29:44.908Z,10.30
2018-12-22T02:32:12.401Z,10.30
2018-12-22T02:34:39.841Z,10.30
2018-12-22T02:37:07.458Z,10.40
2018-12-22T02:39:34.902Z,10.40
2018-12-22T02:42:02.369Z,10.40
2018-12-22T02:44:29.821Z,10.40
2018-12-22T02:46:57.308Z,10.40
2018-12-22T02:49:24.796Z,10.40
2018-12-22T02:51:52.264Z,10.50
2018-12-22T02:54:19.736Z,10.40
2018-12-22T02:56:47.193Z,10.50
2018-12-22T02:59:14.639Z,10.50
2018-12-22T03:01:42.117Z,10.50
2018-12-22T03:04:09.590Z,10.50
2018-12-22T03:06:37.038Z,10.50
2018-12-22T03:09:05.245Z,10.50
2018-12-22T03:11:32.689Z,10.50
2018-12-22T03:14:00.174Z,10.60
2018-12-22T03:16:27.641Z,10.60
2018-12-22T03:18:55.087Z,10.60
2018-12-22T03:21:22.556Z,10.60
2018-12-22T03:23:49.997Z,10.60
2018-12-22T03:26:17.469Z,10.60
2018-12-22T03:28:44.900Z,10.60
2018-12-22T03:31:12.367Z,10.60
2018-12-22T03:33:39.802Z,10.60
2018-12-22T03:36:07.270Z,10.60
2018-12-22T03:38:34.798Z,10.60
2018-12-22T03:41:02.374Z,10.60
2018-12-22T03:43:29.823Z,10.60
2018-12-22T03:45:57.268Z,10.60
2018-12-22T03:48:24.831Z,10.60
2018-12-22T03:50:52.264Z,10.60
2018-12-22T03:53:19.729Z,10.60
2018-12-22T03:55:47.186Z,10.60
2018-12-22T03:58:14.677Z,10.60
2018-12-22T04:00:42.114Z,10.50
2018-12-22T04:03:11.868Z,10.50
2018-12-22T04:05:39.023Z,10.50
2018-12-22T04:08:06.489Z,10.50
2018-12-22T04:10:33.938Z,10.50
2018-12-22T04:13:01.467Z,10.40
2018-12-22T04:15:28.923Z,10.40
2018-12-22T04:17:56.481Z,10.50
2018-12-22T04:20:23.915Z,10.50
2018-12-22T04:22:51.400Z,10.40
2018-12-22T04:25:18.841Z,10.40
2018-12-22T04:27:46.311Z,10.40
2018-12-22T04:30:13.822Z,10.40
2018-12-22T04:32:41.288Z,10.40
2018-12-22T04:35:08.730Z,10.40
2018-12-22T04:37:36.202Z,10.50
2018-12-22T04:40:04.567Z,10.50
2018-12-22T04:42:32.038Z,10.60
2018-12-22T04:44:59.480Z,10.60
2018-12-22T04:47:26.955Z,10.50
2018-12-22T04:49:54.390Z,10.50
2018-12-22T04:52:21.861Z,10.60
2018-12-22T04:54:49.302Z,10.60
2018-12-22T04:57:16.860Z,10.60
2018-12-22T04:59:44.303Z,10.60
2018-12-22T05:02:11.765Z,10.60
2018-12-22T05:04:39.225Z,10.70
2018-12-22T05:07:06.684Z,10.70
2018-12-22T05:09:34.118Z,10.70
2018-12-22T05:12:01.583Z,10.80
2018-12-22T05:14:29.029Z,10.80
2018-12-22T05:16:56.485Z,10.80
2018-12-22T05:19:23.937Z,10.90
2018-12-22T05:21:51.401Z,10.90
2018-12-22T05:24:18.841Z,10.80
2018-12-22T05:26:46.304Z,10.90
2018-12-22T05:29:13.748Z,10.90
2018-12-22T05:31:41.223Z,10.90
2018-12-22T05:34:08.657Z,10.90
2018-12-22T05:36:36.124Z,10.90
2018-12-22T05:39:05.606Z,10.90
2018-12-22T05:41:33.125Z,10.90
2018-12-22T05:44:00.575Z,10.90
2018-12-22T05:46:28.045Z,10.90
2018-12-22T05:48:55.502Z,10.90
2018-12-22T05:51:22.944Z,10.90
2018-12-22T05:53:50.378Z,10.80
2018-12-22T05:56:17.851Z,10.80
2018-12-22T05:58:45.293Z,10.80
2018-12-22T06:01:12.754Z,10.70
2018-12-22T06:03:40.215Z,10.70
2018-12-22T06:06:07.715Z,10.60
2018-12-22T06:08:35.158Z,10.50
2018-12-22T06:11:02.602Z,10.40
2018-12-22T06:13:30.076Z,10.30
2018-12-22T06:15:57.528Z,10.30
2018-12-22T06:18:24.998Z,10.30
2018-12-22T06:20:52.529Z,10.20
2018-12-22T06:23:19.994Z,10.20
2018-12-22T06:25:47.447Z,10.20
2018-12-22T06:28:14.905Z,10.20
2018-12-22T06:30:42.414Z,10.20
2018-12-22T06:33:09.875Z,10.20
2018-12-22T06:35:37.320Z,10.20
2018-12-22T06:38:04.789Z,10.20
2018-12-22T06:40:32.233Z,10.30
2018-12-22T06:42:59.797Z,10.30
2018-12-22T06:45:27.436Z,10.30
2018-12-22T06:47:54.926Z,10.30
2018-12-22T06:50:22.483Z,10.30
2018-12-22T06:52:49.940Z,10.30
2018-12-22T06:55:17.395Z,10.30
2018-12-22T06:57:44.865Z,10.30
2018-12-22T07:00:17.689Z,10.30
2018-12-22T07:02:41.843Z,10.30
2018-12-22T07:05:09.325Z,10.30
2018-12-22T07:07:36.789Z,10.40
2018-12-22T07:10:06.908Z,10.40
2018-12-22T07:12:34.405Z,10.40
2018-12-22T07:15:01.844Z,10.40
2018-12-22T07:17:29.345Z,10.50
2018-12-22T07:19:56.787Z,10.50
2018-12-22T07:22:24.257Z,10.50
2018-12-22T07:24:51.698Z,10.50
2018-12-22T07:27:19.161Z,10.40
2018-12-22T07:29:46.602Z,10.40
2018-12-22T07:32:14.063Z,10.30
2018-12-22T07:34:41.501Z,10.30
2018-12-22T07:37:08.968Z,10.30
2018-12-22T07:39:36.409Z,10.30
2018-12-22T07:42:03.861Z,10.30
2018-12-22T07:44:31.366Z,10.20
2018-12-22T07:46:58.809Z,10.20
2018-12-22T07:49:26.280Z,10.10
2018-12-22T07:51:53.729Z,10.10
2018-12-22T07:54:21.292Z,10.10
2018-12-22T07:56:48.739Z,10.10
2018-12-22T07:59:16.213Z,10.10
2018-12-22T08:01:43.738Z,10.00
2018-12-22T08:04:11.208Z,10.00
2018-12-22T08:06:38.758Z,10.00
2018-12-22T08:09:06.346Z,10.00
2018-12-22T08:11:34.185Z,10.00
2018-12-22T08:14:01.754Z,10.00
2018-12-22T08:16:29.203Z,10.00
2018-12-22T08:18:56.696Z,10.10
2018-12-22T08:21:24.174Z,10.10
2018-12-22T08:23:51.654Z,10.10
2018-12-22T08:26:19.099Z,10.10
2018-12-22T08:28:46.572Z,10.20
2018-12-22T08:31:14.025Z,10.20
2018-12-22T08:33:41.506Z,10.20
2018-12-22T08:36:08.964Z,10.20
2018-12-22T08:38:36.448Z,10.20
2018-12-22T08:41:03.918Z,10.20
2018-12-22T08:43:31.376Z,10.10
2018-12-22T08:45:58.815Z,10.10
2018-12-22T08:48:26.322Z,10.10
2018-12-22T08:50:53.805Z,10.10
2018-12-22T08:53:21.276Z,10.10
2018-12-22T08:55:48.757Z,10.10
2018-12-22T08:58:16.241Z,10.10
2018-12-22T09:00:51.946Z,10.20
2018-12-22T09:03:13.138Z,10.20
2018-12-22T09:05:40.587Z,10.10
2018-12-22T09:08:08.065Z,10.20
2018-12-22T09:10:35.524Z,10.10
2018-12-22T09:13:03.018Z,10.10
2018-12-22T09:15:30.468Z,10.10
2018-12-22T09:17:57.949Z,10.10
2018-12-22T09:20:25.486Z,10.10
2018-12-22T09:22:52.959Z,10.10
2018-12-22T09:25:20.437Z,10.20
2018-12-22T09:27:47.899Z,10.10
2018-12-22T09:30:15.353Z,10.10
2018-12-22T09:32:43.692Z,10.10
2018-12-22T09:35:11.218Z,10.10
2018-12-22T09:37:38.685Z,10.10
2018-12-22T09:40:06.327Z,10.10
2018-12-22T09:42:33.802Z,10.00
2018-12-22T09:45:01.248Z,10.00
2018-12-22T09:47:28.689Z,10.00
2018-12-22T09:49:56.209Z,10.00
2018-12-22T09:52:23.650Z,9.90
2018-12-22T09:54:51.121Z,9.90
2018-12-22T09:57:18.653Z,9.80
2018-12-22T09:59:46.116Z,9.80
2018-12-22T10:02:13.582Z,9.80
2018-12-22T10:04:41.045Z,9.70
2018-12-22T10:07:08.556Z,9.80
2018-12-22T10:09:36.025Z,9.90
2018-12-22T10:12:03.547Z,9.90
2018-12-22T10:14:31.018Z,10.00
2018-12-22T10:16:58.470Z,10.00
2018-12-22T10:19:25.944Z,10.00
2018-12-22T10:21:53.388Z,9.90
2018-12-22T10:24:20.851Z,9.90
2018-12-22T10:26:48.288Z,10.00
2018-12-22T10:29:15.749Z,10.00
2018-12-22T10:31:43.208Z,10.00
2018-12-22T10:34:10.679Z,10.00
2018-12-22T10:36:38.114Z,10.00
2018-12-22T10:39:05.721Z,10.00
2018-12-22T10:41:33.182Z,10.10
2018-12-22T10:44:00.659Z,10.10
2018-12-22T10:46:28.133Z,10.20
2018-12-22T10:48:55.585Z,10.20
2018-12-22T10:51:24.424Z,10.20
2018-12-22T10:53:52.190Z,10.20
2018-12-22T10:56:19.632Z,10.20
2018-12-22T10:58:47.259Z,10.30
2018-12-22T11:01:14.740Z,10.20
2018-12-22T11:03:42.217Z,10.30
2018-12-22T11:06:09.656Z,10.30
2018-12-22T11:08:37.323Z,10.30
2018-12-22T11:11:04.790Z,10.30
2018-12-22T11:13:32.334Z,10.30
2018-12-22T11:15:59.808Z,10.30
2018-12-22T11:18:27.326Z,10.30
2018-12-22T11:20:54.786Z,10.20
2018-12-22T11:23:22.228Z,10.20
2018-12-22T11:25:49.698Z,10.20
2018-12-22T11:28:17.138Z,10.20
2018-12-22T11:30:44.626Z,10.30
2018-12-22T11:33:12.069Z,10.30
2018-12-22T11:35:39.540Z,10.30
2018-12-22T11:38:07.077Z,10.20
2018-12-22T11:40:34.537Z,10.20
2018-12-22T11:43:01.990Z,10.20
2018-12-22T11:45:29.457Z,10.30
2018-12-22T11:47:57.433Z,10.40
2018-12-22T11:50:26.641Z,10.40
2018-12-22T11:52:54.075Z,10.50
2018-12-22T11:55:21.611Z,10.50
2018-12-22T11:57:49.067Z,10.60
2018-12-22T12:00:16.538Z,10.60
2018-12-22T12:02:44.029Z,10.70
2018-12-22T12:05:11.506Z,10.70
2018-12-22T12:07:38.940Z,10.80
2018-12-22T12:10:08.561Z,10.70
2018-12-22T12:12:36.029Z,10.80
2018-12-22T12:15:09.266Z,10.80
2018-12-22T12:17:40.620Z,10.80
2018-12-22T12:20:08.105Z,10.80
2018-12-22T12:22:35.547Z,10.80
2018-12-22T12:25:03.148Z,10.80
2018-12-22T12:27:30.645Z,10.80
2018-12-22T12:29:58.106Z,10.80
2018-12-22T12:32:25.660Z,10.80
2018-12-22T12:34:53.221Z,10.70
2018-12-22T12:37:20.645Z,10.70
2018-12-22T12:39:48.123Z,10.70
2018-12-22T12:42:15.575Z,10.70
2018-12-22T12:44:43.120Z,10.70
2018-12-22T12:47:10.581Z,10.60
2018-12-22T12:49:38.051Z,10.60
2018-12-22T12:52:05.563Z,10.60
2018-12-22T12:54:33.093Z,10.70
2018-12-22T12:57:00.540Z,10.70
2018-12-22T12:59:28.220Z,10.70
2018-12-22T13:02:01.098Z,10.70
2018-12-22T13:04:25.165Z,10.70
2018-12-22T13:06:52.603Z,10.80
2018-12-22T13:09:20.085Z,10.80
2018-12-22T13:11:47.571Z,10.90
2018-12-22T13:14:15.045Z,10.90
2018-12-22T13:16:42.564Z,10.90
2018-12-22T13:19:10.318Z,11.00
2018-12-22T13:21:37.843Z,11.00
2018-12-22T13:24:05.326Z,11.00
2018-12-22T13:26:36.800Z,11.00
2018-12-22T13:29:02.328Z,11.00
2018-12-22T13:31:30.017Z,11.00
2018-12-22T13:33:57.703Z,10.90
2018-12-22T13:36:25.179Z,11.00
2018-12-22T13:38:52.744Z,11.00
2018-12-22T13:41:20.362Z,11.00
2018-12-22T13:43:47.877Z,11.00
2018-12-22T13:46:15.536Z,10.90
2018-12-22T13:48:42.965Z,11.00
2018-12-22T13:51:10.765Z,10.90
2018-12-22T13:53:38.264Z,10.90
2018-12-22T13:56:05.800Z,10.90
2018-12-22T13:58:33.302Z,10.90
2018-12-22T14:01:00.925Z,10.80
2018-12-22T14:03:28.373Z,10.90
2018-12-22T14:05:55.838Z,10.90
2018-12-22T14:08:23.353Z,10.90
2018-12-22T14:10:50.840Z,10.90
2018-12-22T14:13:18.805Z,10.80
2018-12-22T14:15:47.421Z,10.80
2018-12-22T14:18:26.481Z,10.80
2018-12-22T14:20:54.077Z,10.80
2018-12-22T14:23:24.657Z,10.80
2018-12-22T14:25:52.131Z,10.70
2018-12-22T14:28:19.842Z,10.80
2018-12-22T14:30:47.401Z,10.80
2018-12-22T14:33:14.915Z,10.80
2018-12-22T14:35:42.376Z,10.80
2018-12-22T14:38:09.823Z,10.90
2018-12-22T14:40:37.301Z,10.90
2018-12-22T14:43:04.729Z,10.80
2018-12-22T14:45:32.215Z,10.70
2018-12-22T14:47:59.733Z,10.70
2018-12-22T14:50:27.188Z,10.70
2018-12-22T14:52:54.752Z,10.60
2018-12-22T14:55:22.217Z,10.60
2018-12-22T14:57:53.230Z,10.50
2018-12-22T15:00:20.908Z,10.50
2018-12-22T15:02:48.385Z,10.40
2018-12-22T15:05:15.921Z,10.30
2018-12-22T15:07:43.349Z,10.30
2018-12-22T15:10:10.966Z,10.30
2018-12-22T15:12:38.449Z,10.30
2018-12-22T15:15:09.868Z,10.30
2018-12-22T15:17:40.723Z,10.30
2018-12-22T15:20:28.721Z,10.30
2018-12-22T15:22:56.315Z,10.30
2018-12-22T15:25:23.841Z,10.20
2018-12-22T15:27:51.312Z,10.10
2018-12-22T15:30:18.789Z,10.20
2018-12-22T15:32:54.163Z,10.10
2018-12-22T15:35:15.948Z,10.10
2018-12-22T15:37:44.295Z,10.00
2018-12-22T15:40:11.892Z,10.00
2018-12-22T15:42:39.375Z,10.00
2018-12-22T15:45:11.356Z,9.90
2018-12-22T15:47:38.859Z,9.80
2018-12-22T15:50:10.300Z,9.70
2018-12-22T15:52:37.770Z,9.70
2018-12-22T15:55:07.710Z,9.70
2018-12-22T15:57:35.314Z,9.70
2018-12-22T16:00:04.713Z,9.70
2018-12-22T16:02:32.202Z,9.70
2018-12-22T16:04:59.704Z,9.80
2018-12-22T16:07:29.303Z,9.90
2018-12-22T16:09:56.692Z,9.90
2018-12-22T16:12:24.315Z,9.90
2018-12-22T16:14:51.795Z,9.90
2018-12-22T16:17:19.368Z,9.90
2018-12-22T16:19:47.028Z,9.90
2018-12-22T16:22:14.587Z,9.90
2018-12-22T16:24:42.054Z,9.90
2018-12-22T16:27:09.826Z,9.90
2018-12-22T16:29:37.374Z,10.00
2018-12-22T16:32:05.098Z,10.00
2018-12-22T16:34:32.528Z,9.90
2018-12-22T16:37:00.001Z,9.90
2018-12-22T16:39:27.499Z,10.00
2018-12-22T16:41:55.044Z,9.90
2018-12-22T16:44:22.499Z,9.90
2018-12-22T16:46:49.981Z,9.90
2018-12-22T16:49:17.417Z,9.90
2018-12-22T16:51:44.912Z,9.90
2018-12-22T16:54:12.470Z,10.00
2018-12-22T16:56:39.978Z,10.00
2018-12-22T16:59:07.464Z,10.00
2018-12-22T17:01:38.221Z,10.00
2018-12-22T17:04:05.682Z,10.00
2018-12-22T17:06:33.431Z,10.00
2018-12-22T17:09:00.933Z,10.00
2018-12-22T17:11:28.424Z,9.90
2018-12-22T17:13:55.886Z,9.90
2018-12-22T17:16:23.370Z,9.90
2018-12-22T17:18:50.839Z,9.90
2018-12-22T17:21:20.060Z,10.00
2018-12-22T17:23:52.558Z,10.00
2018-12-22T17:26:21.677Z,10.00
2018-12-22T17:28:49.224Z,10.00
2018-12-22T17:31:16.691Z,10.00
2018-12-22T17:33:44.229Z,9.90
2018-12-22T17:36:11.862Z,9.90
2018-12-22T17:38:39.357Z,9.90
2018-12-22T17:41:07.449Z,9.90
2018-12-22T17:43:36.445Z,9.90
2018-12-22T17:46:03.917Z,9.80
2018-12-22T17:48:31.363Z,9.80
2018-12-22T17:50:58.885Z,9.80
2018-12-22T17:53:26.312Z,9.70
2018-12-22T17:55:53.782Z,9.70
2018-12-22T17:58:21.218Z,9.70
2018-12-22T18:00:48.681Z,9.70
2018-12-22T18:03:16.184Z,9.80
2018-12-22T18:05:43.656Z,9.70
2018-12-22T18:08:11.810Z,9.70
2018-12-22T18:10:39.281Z,9.80
2018-12-22T18:13:06.718Z,9.70
2018-12-22T18:15:34.188Z,9.70
2018-12-22T18:18:01.643Z,9.70
2018-12-22T18:20:29.122Z,9.70
2018-12-22T18:22:56.577Z,9.70
2018-12-22T18:25:24.178Z,9.70
2018-12-22T18:27:53.022Z,9.70
2018-12-22T18:30:20.629Z,9.70
2018-12-22T18:32:48.070Z,9.70
2018-12-22T18:35:15.532Z,9.70
2018-12-22T18:37:42.998Z,9.80
2018-12-22T18:40:18.329Z,9.80
2018-12-22T18:42:46.649Z,9.80
2018-12-22T18:45:14.116Z,9.90
2018-12-22T18:47:42.601Z,9.90
2018-12-22T18:50:13.744Z,9.90
2018-12-22T18:52:41.181Z,9.90
2018-12-22T18:55:09.611Z,9.90
2018-12-22T18:57:37.548Z,9.90
2018-12-22T19:00:15.053Z,9.90
2018-12-22T19:02:42.538Z,9.90
2018-12-22T19:05:10.145Z,9.90
2018-12-22T19:07:37.695Z,9.90
2018-12-22T19:10:10.962Z,9.90
2018-12-22T19:12:38.435Z,9.80
2018-12-22T19:15:06.315Z,9.80
2018-12-22T19:17:33.867Z,9.60
2018-12-22T19:20:01.323Z,9.60
2018-12-22T19:22:28.803Z,9.60
2018-12-22T19:24:56.289Z,9.50
2018-12-22T19:27:23.926Z,9.50
2018-12-22T19:29:51.391Z,9.40
2018-12-22T19:32:19.424Z,9.30
2018-12-22T19:34:46.882Z,9.30
2018-12-22T19:37:14.350Z,9.30
2018-12-22T19:39:41.814Z,9.30
2018-12-22T19:42:09.270Z,9.30
2018-12-22T19:44:36.725Z,9.30
2018-12-22T19:47:04.174Z,9.30
2018-12-22T19:49:31.666Z,9.30
2018-12-22T19:51:59.077Z,9.30
2018-12-22T19:54:26.557Z,9.40
2018-12-22T19:56:54.010Z,9.40
2018-12-22T19:59:21.484Z,9.40
2018-12-22T20:01:48.905Z,9.40
2018-12-22T20:04:16.418Z,9.40
2018-12-22T20:06:43.863Z,9.40
2018-12-22T20:09:11.337Z,9.40
2018-12-22T20:11:39.050Z,9.40
2018-12-22T20:14:06.551Z,9.40
2018-12-22T20:16:34.000Z,9.40
2018-12-22T20:19:01.464Z,9.50
2018-12-22T20:21:28.974Z,9.50
2018-12-22T20:23:56.487Z,9.50
2018-12-22T20:26:23.949Z,9.50
2018-12-22T20:28:51.464Z,9.50
2018-12-22T20:31:18.903Z,9.50
2018-12-22T20:33:46.382Z,9.50
2018-12-22T20:36:13.870Z,9.50
2018-12-22T20:38:41.330Z,9.50
2018-12-22T20:41:08.765Z,9.60
2018-12-22T20:43:37.117Z,9.60
2018-12-22T20:46:04.566Z,9.50
2018-12-22T20:48:32.035Z,9.50
2018-12-22T20:51:00.304Z,9.50
2018-12-22T20:53:27.783Z,9.60
2018-12-22T20:55:55.206Z,9.60
2018-12-22T20:58:22.668Z,9.60
2018-12-22T21:00:50.131Z,9.60
2018-12-22T21:03:20.475Z,9.60
2018-12-22T21:05:51.699Z,9.60
2018-12-22T21:08:19.139Z,9.60
2018-12-22T21:10:46.626Z,9.60
2018-12-22T21:13:14.062Z,9.60
2018-12-22T21:15:41.547Z,9.60
2018-12-22T21:18:09.020Z,9.60
2018-12-22T21:20:36.465Z,9.60
2018-12-22T21:23:03.954Z,9.60
2018-12-22T21:25:31.405Z,9.70
2018-12-22T21:27:58.854Z,9.60
2018-12-22T21:30:26.341Z,9.70
2018-12-22T21:32:53.804Z,9.60
2018-12-22T21:35:21.305Z,9.60
2018-12-22T21:37:48.736Z,9.60
2018-12-22T21:40:16.203Z,9.60
2018-12-22T21:42:43.643Z,9.60
2018-12-22T21:45:11.115Z,9.60
2018-12-22T21:47:38.580Z,9.60
2018-12-22T21:50:06.049Z,9.60
2018-12-22T21:52:33.497Z,9.60
2018-12-22T21:55:00.957Z,9.60
2018-12-22T21:57:28.397Z,9.70
2018-12-22T21:59:55.874Z,9.60
2018-12-22T22:02:23.327Z,9.70
2018-12-22T22:04:50.785Z,9.60
2018-12-22T22:07:18.239Z,9.60
2018-12-22T22:09:45.701Z,9.70
2018-12-22T22:12:13.173Z,9.70
2018-12-22T22:14:40.682Z,9.70
2018-12-22T22:17:08.115Z,9.70
2018-12-22T22:19:35.577Z,9.60
2018-12-22T22:22:03.092Z,9.60
2018-12-22T22:24:31.546Z,9.50
2018-12-22T22:26:58.990Z,9.50
2018-12-22T22:29:26.497Z,9.50
2018-12-22T22:31:53.933Z,9.50
2018-12-22T22:34:21.405Z,9.50
2018-12-22T22:36:48.921Z,9.50
2018-12-22T22:39:16.397Z,9.50
2018-12-22T22:41:43.839Z,9.50
2018-12-22T22:44:11.510Z,9.50
2018-12-22T22:46:38.972Z,9.50
2018-12-22T22:49:06.450Z,9.40
2018-12-22T22:51:33.884Z,9.40
2018-12-22T22:54:01.356Z,9.50
2018-12-22T22:56:28.910Z,9.50
2018-12-22T22:58:56.444Z,9.50
2018-12-22T23:01:24.094Z,9.50
2018-12-22T23:03:51.543Z,9.50
2018-12-22T23:06:19.017Z,9.50
2018-12-22T23:08:46.933Z,9.50
2018-12-22T23:11:14.405Z,9.50
2018-12-22T23:13:41.847Z,9.50
2018-12-22T23:16:09.313Z,9.50
2018-12-22T23:18:36.761Z,9.40
2018-12-22T23:21:04.256Z,9.40
2018-12-22T23:23:31.697Z,9.40
2018-12-22T23:25:59.206Z,9.40
2018-12-22T23:28:26.642Z,9.40
2018-12-22T23:30:54.114Z,9.40
2018-12-22T23:33:21.564Z,9.40
2018-12-22T23:35:49.169Z,9.40
2018-12-22T23:38:16.680Z,9.40
2018-12-22T23:40:44.163Z,9.40
2018-12-22T23:43:11.589Z,9.40
2018-12-22T23:45:39.154Z,9.40
2018-12-22T23:48:06.598Z,9.30
2018-12-22T23:50:34.061Z,9.30
2018-12-22T23:53:01.865Z,9.30
2018-12-22T23:55:29.333Z,9.30
2018-12-22T23:57:56.767Z,9.30
